createdAt,value
2023-08-11T00:00:34.903Z,99113.36
2023-08-11T00:03:24.009Z,99113.63
2023-08-11T00:05:55.562Z,99115.95
2023-08-11T00:08:24.681Z,99116.88
2023-08-11T00:10:54.401Z,99117.46
2023-08-11T00:13:23.343Z,99118.79
2023-08-11T00:15:52.750Z,99122.70
2023-08-11T00:18:22.055Z,99121.69
2023-08-11T00:20:51.263Z,99120.89
2023-08-11T00:23:20.877Z,99114.01
2023-08-11T00:25:50.357Z,99112.34
2023-08-11T00:28:19.876Z,99115.11
2023-08-11T00:30:50.570Z,99119.50
2023-08-11T00:33:20.677Z,99119.77
2023-08-11T00:35:49.699Z,99116.98
2023-08-11T00:38:19.103Z,99112.76
2023-08-11T00:40:47.977Z,99113.92
2023-08-11T00:43:17.048Z,99110.41
2023-08-11T00:45:49.892Z,99109.64
2023-08-11T00:48:19.139Z,99111.98
2023-08-11T00:50:49.308Z,99114.95
2023-08-11T00:53:19.200Z,99114.96
2023-08-11T00:55:48.068Z,99117.70
2023-08-11T00:58:17.439Z,99117.63
2023-08-11T01:00:48.630Z,99116.01
2023-08-11T01:03:18.985Z,99112.70
2023-08-11T01:06:07.158Z,99115.73
2023-08-11T01:08:50.618Z,99117.65
2023-08-11T01:11:40.433Z,99119.33
2023-08-11T01:14:42.604Z,99122.08
2023-08-11T01:17:16.095Z,99120.11
2023-08-11T01:19:47.235Z,99123.00
2023-08-11T01:22:19.145Z,99126.51
2023-08-11T01:24:48.605Z,99127.88
2023-08-11T01:27:17.818Z,99130.39
2023-08-11T01:29:47.198Z,99132.02
2023-08-11T01:32:16.597Z,99132.76
2023-08-11T01:34:45.397Z,99133.72
2023-08-11T01:37:14.204Z,99134.13
2023-08-11T01:39:43.051Z,99132.70
2023-08-11T01:42:13.301Z,99135.09
2023-08-11T01:44:43.321Z,99130.30
2023-08-11T01:47:13.399Z,99133.42
2023-08-11T01:49:44.534Z,99127.88
2023-08-11T01:52:14.917Z,99126.98
2023-08-11T01:54:45.372Z,99130.98
2023-08-11T01:57:15.627Z,99125.09
2023-08-11T01:59:45.333Z,99122.19
2023-08-11T02:02:14.805Z,99125.16
2023-08-11T02:04:43.843Z,99126.12
2023-08-11T02:07:12.984Z,99127.23
2023-08-11T02:09:42.970Z,99122.20
2023-08-11T02:12:11.781Z,99117.78
2023-08-11T02:14:40.652Z,99117.71
2023-08-11T02:17:10.419Z,99118.84
2023-08-11T02:19:39.622Z,99114.52
2023-08-11T02:22:08.593Z,99114.02
2023-08-11T02:24:37.810Z,99112.43
2023-08-11T02:27:07.435Z,99112.67
2023-08-11T02:29:38.248Z,99111.87
2023-08-11T02:32:07.313Z,99104.99
2023-08-11T02:34:36.956Z,99105.16
2023-08-11T02:37:06.630Z,99103.63
2023-08-11T02:39:38.992Z,99099.63
2023-08-11T02:42:09.951Z,99097.15
2023-08-11T02:44:39.520Z,99099.79
2023-08-11T02:47:09.432Z,99098.02
2023-08-11T02:49:38.618Z,99095.54
2023-08-11T02:52:07.811Z,99096.90
2023-08-11T02:54:37.807Z,99096.17
2023-08-11T02:57:07.641Z,99090.56
2023-08-11T02:59:36.737Z,99089.89
2023-08-11T03:02:06.303Z,99086.38
2023-08-11T03:04:37.994Z,99087.55
2023-08-11T03:07:07.452Z,99088.35
2023-08-11T03:09:36.799Z,99092.09
2023-08-11T03:12:06.366Z,99090.08
2023-08-11T03:14:38.638Z,99095.80
2023-08-11T03:17:08.012Z,99098.04
2023-08-11T03:19:37.575Z,99102.98
2023-08-11T03:22:07.650Z,99099.94
2023-08-11T03:24:37.533Z,99099.70
2023-08-11T03:27:07.974Z,99097.93
2023-08-11T03:29:37.225Z,99101.39
2023-08-11T03:32:07.316Z,99100.29
2023-08-11T03:34:37.991Z,99099.58
2023-08-11T03:37:08.898Z,99103.84
2023-08-11T03:39:39.529Z,99108.08
2023-08-11T03:42:11.316Z,99110.34
2023-08-11T03:44:43.630Z,99113.70
2023-08-11T03:47:13.113Z,99115.30
2023-08-11T03:49:42.830Z,99117.04
2023-08-11T03:52:12.610Z,99115.67
2023-08-11T03:54:45.675Z,99119.19
2023-08-11T03:57:16.036Z,99123.52
2023-08-11T03:59:46.207Z,99125.59
2023-08-11T04:02:17.306Z,99123.59
2023-08-11T04:04:49.687Z,99127.24
2023-08-11T04:07:20.302Z,99131.20
2023-08-11T04:09:50.679Z,99134.80
2023-08-11T04:12:22.147Z,99136.33
2023-08-11T04:14:52.483Z,99137.83
2023-08-11T04:17:23.625Z,99136.36
2023-08-11T04:19:56.008Z,99140.95
2023-08-11T04:22:38.234Z,99142.15
2023-08-11T04:25:12.564Z,99142.16
2023-08-11T04:27:43.000Z,99141.69
2023-08-11T04:30:14.104Z,99146.09
2023-08-11T04:32:45.194Z,99149.45
2023-08-11T04:35:17.056Z,99155.19
2023-08-11T04:37:48.816Z,99156.79
2023-08-11T04:40:19.646Z,99152.14
2023-08-11T04:42:50.489Z,99150.87
2023-08-11T04:45:23.005Z,99150.72
2023-08-11T04:47:52.649Z,99147.89
2023-08-11T04:50:21.861Z,99156.37
2023-08-11T04:52:51.542Z,99151.52
2023-08-11T04:55:22.453Z,99148.36
2023-08-11T04:57:52.068Z,99150.83
2023-08-11T05:00:22.319Z,99155.67
2023-08-11T05:02:54.275Z,99157.29
2023-08-11T05:05:25.289Z,99158.65
2023-08-11T05:07:54.824Z,99155.52
2023-08-11T05:10:24.257Z,99154.73
2023-08-11T05:12:53.714Z,99155.55
2023-08-11T05:15:24.319Z,99154.53
2023-08-11T05:17:53.536Z,99156.16
2023-08-11T05:20:24.248Z,99155.48
2023-08-11T05:22:54.945Z,99157.90
2023-08-11T05:25:24.232Z,99159.52
2023-08-11T05:27:53.736Z,99165.05
2023-08-11T05:30:29.879Z,99168.84
2023-08-11T05:32:59.703Z,99169.63
2023-08-11T05:35:31.306Z,99173.90
2023-08-11T05:38:03.289Z,99173.68
2023-08-11T05:40:33.932Z,99177.68
2023-08-11T05:43:03.692Z,99178.23
2023-08-11T05:45:35.213Z,99180.90
2023-08-11T05:48:05.732Z,99181.54
2023-08-11T05:50:36.645Z,99187.29
2023-08-11T05:53:06.326Z,99185.36
2023-08-11T05:55:36.581Z,99186.30
2023-08-11T05:58:06.432Z,99187.95
2023-08-11T06:00:36.596Z,99191.05
2023-08-11T06:03:06.863Z,99196.39
2023-08-11T06:05:37.201Z,99192.92
2023-08-11T06:08:07.449Z,99189.67
2023-08-11T06:10:37.325Z,99189.04
2023-08-11T06:13:07.021Z,99180.92
2023-08-11T06:15:36.422Z,99181.66
2023-08-11T06:18:07.087Z,99183.38
2023-08-11T06:20:41.681Z,99182.45
2023-08-11T06:23:14.077Z,99179.11
2023-08-11T06:25:44.361Z,99179.00
2023-08-11T06:28:13.757Z,99184.29
2023-08-11T06:30:42.706Z,99188.34
2023-08-11T06:33:12.817Z,99190.52
2023-08-11T06:35:44.558Z,99193.52
2023-08-11T06:38:13.921Z,99191.55
2023-08-11T06:40:46.499Z,99192.73
2023-08-11T06:43:16.915Z,99195.48
2023-08-11T06:45:47.629Z,99195.25
2023-08-11T06:48:17.813Z,99194.67
2023-08-11T06:50:47.621Z,99194.50
2023-08-11T06:53:18.018Z,99193.89
2023-08-11T06:55:48.725Z,99197.37
2023-08-11T06:58:18.648Z,99194.80
2023-08-11T07:00:49.891Z,99198.78
2023-08-11T07:03:19.733Z,99198.49
2023-08-11T07:05:53.149Z,99201.61
2023-08-11T07:08:22.795Z,99195.23
2023-08-11T07:10:54.537Z,99200.11
2023-08-11T07:13:25.311Z,99210.16
2023-08-11T07:15:58.774Z,99207.64
2023-08-11T07:18:29.707Z,99210.58
2023-08-11T07:20:59.148Z,99211.88
2023-08-11T07:23:28.523Z,99213.38
2023-08-11T07:25:57.995Z,99214.95
2023-08-11T07:28:26.743Z,99216.02
2023-08-11T07:30:56.053Z,99216.45
2023-08-11T07:33:25.550Z,99213.91
2023-08-11T07:35:54.422Z,99212.82
2023-08-11T07:38:23.836Z,99211.46
2023-08-11T07:40:53.913Z,99213.94
2023-08-11T07:43:22.879Z,99214.06
2023-08-11T07:45:52.435Z,99210.94
2023-08-11T07:48:21.666Z,99212.83
2023-08-11T07:50:50.270Z,99211.73
2023-08-11T07:53:19.209Z,99215.38
2023-08-11T07:55:49.478Z,99215.89
2023-08-11T07:58:21.363Z,99218.51
2023-08-11T08:00:53.102Z,99221.08
2023-08-11T08:03:25.730Z,99222.23
2023-08-11T08:05:56.420Z,99222.25
2023-08-11T08:08:29.373Z,99222.71
2023-08-11T08:11:01.510Z,99221.30
2023-08-11T08:13:34.082Z,99222.71
2023-08-11T08:16:03.936Z,99225.05
2023-08-11T08:18:34.293Z,99224.34
2023-08-11T08:21:05.976Z,99224.86
2023-08-11T08:23:38.004Z,99222.03
2023-08-11T08:26:10.758Z,99224.67
2023-08-11T08:28:42.355Z,99229.00
2023-08-11T08:31:13.099Z,99228.96
2023-08-11T08:33:42.519Z,99224.94
2023-08-11T08:36:11.912Z,99224.87
2023-08-11T08:38:42.965Z,99225.44
2023-08-11T08:41:15.954Z,99218.30
2023-08-11T08:43:45.819Z,99221.44
2023-08-11T08:46:17.749Z,99218.71
2023-08-11T08:49:11.051Z,99219.15
2023-08-11T08:51:42.664Z,99216.83
2023-08-11T08:54:14.537Z,99220.70
2023-08-11T08:56:46.141Z,99223.91
2023-08-11T08:59:18.840Z,99219.34
2023-08-11T09:01:50.678Z,99215.41
2023-08-11T09:04:24.440Z,99214.89
2023-08-11T09:06:57.044Z,99213.48
2023-08-11T09:09:29.484Z,99211.83
2023-08-11T09:11:59.564Z,99212.98
2023-08-11T09:14:29.064Z,99209.20
2023-08-11T09:17:03.838Z,99210.15
2023-08-11T09:19:33.388Z,99207.17
2023-08-11T09:22:02.375Z,99202.65
2023-08-11T09:24:33.168Z,99199.39
2023-08-11T09:27:02.658Z,99201.98
2023-08-11T09:29:32.977Z,99197.02
2023-08-11T09:32:05.923Z,99199.58
2023-08-11T09:34:41.321Z,99198.55
2023-08-11T09:37:11.383Z,99199.52
2023-08-11T09:39:43.853Z,99199.98
2023-08-11T09:42:17.024Z,99196.19
2023-08-11T09:44:47.826Z,99193.04
2023-08-11T09:47:23.156Z,99194.23
2023-08-11T09:49:53.786Z,99191.35
2023-08-11T09:52:25.638Z,99189.20
2023-08-11T09:54:58.257Z,99184.20
2023-08-11T09:57:28.639Z,99178.75
2023-08-11T10:00:01.698Z,99175.71
2023-08-11T10:02:33.777Z,99175.05
2023-08-11T10:05:10.065Z,99171.31
2023-08-11T10:07:42.609Z,99171.77
2023-08-11T10:10:19.821Z,99174.22
2023-08-11T10:13:08.167Z,99170.95
2023-08-11T10:15:39.772Z,99172.88
2023-08-11T10:18:10.437Z,99170.55
2023-08-11T10:20:40.258Z,99170.36
2023-08-11T10:23:10.790Z,99172.10
2023-08-11T10:25:40.437Z,99172.33
2023-08-11T10:28:13.149Z,99175.48
2023-08-11T10:30:42.405Z,99173.16
2023-08-11T10:33:12.056Z,99169.54
2023-08-11T10:35:47.544Z,99168.45
2023-08-11T10:38:30.231Z,99166.86
2023-08-11T10:41:04.582Z,99166.00
2023-08-11T10:43:43.634Z,99164.29
2023-08-11T10:46:31.890Z,99166.08
2023-08-11T10:49:22.627Z,99163.77
2023-08-11T10:51:56.323Z,99164.16
2023-08-11T10:54:27.401Z,99166.29
2023-08-11T10:57:00.607Z,99162.36
2023-08-11T10:59:31.776Z,99160.95
2023-08-11T11:02:04.549Z,99159.00
2023-08-11T11:04:34.688Z,99157.88
2023-08-11T11:07:03.945Z,99155.62
2023-08-11T11:09:33.472Z,99151.25
2023-08-11T11:12:02.454Z,99152.58
2023-08-11T11:14:31.555Z,99154.14
2023-08-11T11:17:05.749Z,99148.14
2023-08-11T11:19:34.745Z,99152.84
2023-08-11T11:22:04.421Z,99150.11
2023-08-11T11:24:33.970Z,99146.84
2023-08-11T11:27:03.024Z,99144.52
2023-08-11T11:29:33.145Z,99143.83
2023-08-11T11:32:08.576Z,99138.52
2023-08-11T11:34:41.277Z,99138.84
2023-08-11T11:37:11.171Z,99140.60
2023-08-11T11:39:40.933Z,99141.48
2023-08-11T11:42:13.670Z,99139.88
2023-08-11T11:44:43.890Z,99135.93
2023-08-11T11:47:14.059Z,99135.86
2023-08-11T11:49:43.226Z,99134.20
2023-08-11T11:52:13.475Z,99134.73
2023-08-11T11:54:43.535Z,99135.86
2023-08-11T11:57:13.324Z,99135.98
2023-08-11T11:59:44.272Z,99133.45
2023-08-11T12:02:15.119Z,99130.23
2023-08-11T12:04:49.750Z,99130.88
2023-08-11T12:07:36.341Z,99129.67
2023-08-11T12:10:07.491Z,99128.99
2023-08-11T12:12:38.881Z,99134.98
2023-08-11T12:15:09.787Z,99134.59
2023-08-11T12:17:39.619Z,99130.00
2023-08-11T12:20:10.315Z,99131.16
2023-08-11T12:22:40.314Z,99132.84
2023-08-11T12:25:12.284Z,99129.89
2023-08-11T12:27:44.153Z,99134.83
2023-08-11T12:30:15.885Z,99134.16
2023-08-11T12:32:45.988Z,99133.53
2023-08-11T12:35:15.567Z,99134.47
2023-08-11T12:37:45.284Z,99130.46
2023-08-11T12:40:14.452Z,99128.82
2023-08-11T12:42:43.359Z,99125.28
2023-08-11T12:45:13.353Z,99124.89
2023-08-11T12:47:43.048Z,99127.71
2023-08-11T12:50:13.321Z,99130.23
2023-08-11T12:52:43.717Z,99126.71
2023-08-11T12:55:17.970Z,99127.65
2023-08-11T12:57:48.079Z,99125.38
2023-08-11T13:00:18.846Z,99128.03
2023-08-11T13:02:49.505Z,99128.29
2023-08-11T13:05:19.204Z,99130.70
2023-08-11T13:07:49.381Z,99126.20
2023-08-11T13:10:19.561Z,99125.59
2023-08-11T13:12:49.684Z,99123.79
2023-08-11T13:15:19.946Z,99122.02
2023-08-11T13:17:49.847Z,99122.08
2023-08-11T13:20:20.046Z,99121.27
2023-08-11T13:22:50.065Z,99114.59
2023-08-11T13:25:19.097Z,99117.83
2023-08-11T13:27:48.412Z,99117.20
2023-08-11T13:30:18.740Z,99115.80
2023-08-11T13:32:49.457Z,99113.15
2023-08-11T13:35:19.120Z,99113.69
2023-08-11T13:37:48.984Z,99110.61
2023-08-11T13:40:19.016Z,99108.88
2023-08-11T13:42:48.757Z,99111.46
2023-08-11T13:45:19.429Z,99107.18
2023-08-11T13:47:49.651Z,99107.46
2023-08-11T13:50:21.086Z,99100.84
2023-08-11T13:52:51.161Z,99102.07
2023-08-11T13:55:21.511Z,99103.98
2023-08-11T13:57:53.110Z,99101.64
2023-08-11T14:00:24.924Z,99101.14
2023-08-11T14:02:56.198Z,99100.76
2023-08-11T14:05:27.858Z,99099.29
2023-08-11T14:07:58.772Z,99098.11
2023-08-11T14:10:28.651Z,99103.95
2023-08-11T14:13:03.220Z,99104.44
2023-08-11T14:15:38.830Z,99102.17
2023-08-11T14:18:10.624Z,99099.14
2023-08-11T14:20:41.434Z,99097.91
2023-08-11T14:23:12.813Z,99095.82
2023-08-11T14:25:42.409Z,99095.66
2023-08-11T14:28:12.570Z,99095.84
2023-08-11T14:30:43.040Z,99094.27
2023-08-11T14:33:13.262Z,99098.49
2023-08-11T14:35:44.970Z,99098.83
2023-08-11T14:38:17.797Z,99099.52
2023-08-11T14:40:50.923Z,99091.23
2023-08-11T14:43:22.990Z,99091.08
2023-08-11T14:45:54.033Z,99089.61
2023-08-11T14:48:27.963Z,99089.13
2023-08-11T14:50:59.375Z,99088.13
2023-08-11T14:53:32.415Z,99083.63
2023-08-11T14:56:02.144Z,99079.51
2023-08-11T14:58:32.939Z,99074.53
2023-08-11T15:01:03.117Z,99071.79
2023-08-11T15:03:34.527Z,99072.27
2023-08-11T15:06:06.953Z,99070.48
2023-08-11T15:08:37.458Z,99066.52
2023-08-11T15:11:07.312Z,99059.27
2023-08-11T15:13:37.069Z,99058.99
2023-08-11T15:16:07.542Z,99061.23
2023-08-11T15:18:38.496Z,99058.34
2023-08-11T15:21:10.235Z,99057.11
2023-08-11T15:23:41.034Z,99056.75
2023-08-11T15:26:11.804Z,99054.64
2023-08-11T15:28:42.951Z,99055.63
2023-08-11T15:31:14.148Z,99051.41
2023-08-11T15:33:45.445Z,99048.95
2023-08-11T15:36:14.712Z,99053.80
2023-08-11T15:38:45.156Z,99054.56
2023-08-11T15:41:15.641Z,99052.92
2023-08-11T15:43:46.471Z,99051.65
2023-08-11T15:46:16.693Z,99045.27
2023-08-11T15:48:46.408Z,99044.71
2023-08-11T15:51:16.100Z,99041.57
2023-08-11T15:53:46.935Z,99039.69
2023-08-11T15:56:17.352Z,99041.37
2023-08-11T15:58:48.900Z,99038.46
2023-08-11T16:01:20.115Z,99038.39
2023-08-11T16:03:49.585Z,99038.52
2023-08-11T16:06:18.872Z,99045.13
2023-08-11T16:08:48.060Z,99043.41
2023-08-11T16:11:18.273Z,99046.98
2023-08-11T16:13:47.881Z,99050.97
2023-08-11T16:16:17.050Z,99048.58
2023-08-11T16:18:47.260Z,99052.98
2023-08-11T16:21:16.679Z,99056.16
2023-08-11T16:23:47.844Z,99059.63
2023-08-11T16:26:18.464Z,99057.58
2023-08-11T16:28:47.692Z,99060.48
2023-08-11T16:31:16.726Z,99062.07
2023-08-11T16:33:46.104Z,99060.98
2023-08-11T16:36:15.573Z,99063.39
2023-08-11T16:38:45.072Z,99064.38
2023-08-11T16:41:15.446Z,99072.41
2023-08-11T16:43:45.832Z,99072.48
2023-08-11T16:46:17.625Z,99073.73
2023-08-11T16:48:48.371Z,99073.67
2023-08-11T16:51:17.629Z,99078.12
2023-08-11T16:53:47.287Z,99081.67
2023-08-11T16:56:18.133Z,99084.41
2023-08-11T16:58:48.136Z,99083.85
2023-08-11T17:01:17.382Z,99086.80
2023-08-11T17:03:46.868Z,99087.63
2023-08-11T17:06:20.743Z,99092.08
2023-08-11T17:08:51.939Z,99093.64
2023-08-11T17:11:21.048Z,99093.81
2023-08-11T17:13:50.569Z,99095.19
2023-08-11T17:16:21.031Z,99098.05
2023-08-11T17:18:51.172Z,99098.88
2023-08-11T17:21:20.460Z,99103.77
2023-08-11T17:23:56.157Z,99107.80
2023-08-11T17:26:25.694Z,99112.40
2023-08-11T17:28:56.068Z,99115.41
2023-08-11T17:31:25.813Z,99112.89
2023-08-11T17:33:56.554Z,99112.89
2023-08-11T17:36:30.381Z,99124.45
2023-08-11T17:39:00.192Z,99124.73
2023-08-11T17:41:29.769Z,99128.67
2023-08-11T17:43:58.738Z,99134.27
2023-08-11T17:46:28.387Z,99135.01
2023-08-11T17:48:58.320Z,99136.71
2023-08-11T17:51:27.278Z,99136.05
2023-08-11T17:54:08.984Z,99132.08
2023-08-11T17:56:39.420Z,99132.21
2023-08-11T17:59:09.042Z,99127.14
2023-08-11T18:01:39.497Z,99124.55
2023-08-11T18:04:08.785Z,99131.50
2023-08-11T18:06:38.238Z,99131.70
2023-08-11T18:09:08.058Z,99128.45
2023-08-11T18:11:38.780Z,99133.08
2023-08-11T18:14:07.865Z,99142.31
2023-08-11T18:16:37.647Z,99139.52
2023-08-11T18:19:06.963Z,99142.52
2023-08-11T18:21:36.537Z,99150.05
2023-08-11T18:24:06.144Z,99150.98
2023-08-11T18:26:36.249Z,99157.66
2023-08-11T18:29:05.824Z,99155.88
2023-08-11T18:31:35.342Z,99156.33
2023-08-11T18:34:04.643Z,99157.22
2023-08-11T18:36:33.893Z,99167.27
2023-08-11T18:39:03.605Z,99175.77
2023-08-11T18:41:32.843Z,99176.05
2023-08-11T18:44:02.205Z,99180.75
2023-08-11T18:46:33.591Z,99184.83
2023-08-11T18:49:06.093Z,99185.27
2023-08-11T18:51:35.614Z,99183.58
2023-08-11T18:54:05.666Z,99185.66
2023-08-11T18:56:43.268Z,99191.53
2023-08-11T18:59:13.393Z,99195.79
2023-08-11T19:01:43.282Z,99201.69
2023-08-11T19:04:13.608Z,99204.81
2023-08-11T19:06:43.377Z,99211.61
2023-08-11T19:09:13.316Z,99210.21
2023-08-11T19:11:42.741Z,99211.72
2023-08-11T19:14:12.216Z,99212.65
2023-08-11T19:16:41.676Z,99218.23
2023-08-11T19:19:15.859Z,99212.98
2023-08-11T19:21:45.759Z,99217.62
2023-08-11T19:24:15.169Z,99218.20
2023-08-11T19:26:46.373Z,99215.86
2023-08-11T19:29:15.801Z,99220.27
2023-08-11T19:31:46.076Z,99222.34
2023-08-11T19:34:16.037Z,99227.96
2023-08-11T19:36:45.877Z,99231.17
2023-08-11T19:39:15.890Z,99232.00
2023-08-11T19:41:45.383Z,99236.49
2023-08-11T19:44:15.312Z,99234.60
2023-08-11T19:46:44.725Z,99235.19
2023-08-11T19:49:14.152Z,99232.66
2023-08-11T19:51:46.234Z,99230.96
2023-08-11T19:54:15.827Z,99234.17
2023-08-11T19:56:47.907Z,99234.39
2023-08-11T19:59:20.085Z,99236.96
2023-08-11T20:01:52.081Z,99244.36
2023-08-11T20:04:26.092Z,99251.32
2023-08-11T20:06:57.755Z,99248.40
2023-08-11T20:09:34.669Z,99244.54
2023-08-11T20:12:08.895Z,99241.85
2023-08-11T20:14:40.347Z,99245.92
2023-08-11T20:17:11.260Z,99244.16
2023-08-11T20:19:43.613Z,99247.09
2023-08-11T20:22:15.131Z,99246.05
2023-08-11T20:24:47.122Z,99252.04
2023-08-11T20:27:23.213Z,99251.54
2023-08-11T20:29:55.647Z,99251.88
2023-08-11T20:32:27.162Z,99250.36
2023-08-11T20:34:58.007Z,99255.08
2023-08-11T20:37:30.009Z,99251.70
2023-08-11T20:39:59.760Z,99257.20
2023-08-11T20:42:30.990Z,99263.27
2023-08-11T20:45:02.435Z,99265.80
2023-08-11T20:47:32.892Z,99258.98
2023-08-11T20:50:03.274Z,99262.90
2023-08-11T20:52:34.324Z,99260.27
2023-08-11T20:55:05.341Z,99260.36
2023-08-11T20:57:35.870Z,99259.33
2023-08-11T21:00:08.086Z,99264.77
2023-08-11T21:02:40.142Z,99268.46
2023-08-11T21:05:10.585Z,99266.64
2023-08-11T21:07:40.665Z,99264.06
2023-08-11T21:10:10.505Z,99268.34
2023-08-11T21:12:40.434Z,99271.76
2023-08-11T21:15:10.867Z,99268.92
2023-08-11T21:17:40.813Z,99269.38
2023-08-11T21:20:11.520Z,99273.88
2023-08-11T21:22:41.430Z,99274.45
2023-08-11T21:25:12.036Z,99274.28
2023-08-11T21:27:41.463Z,99275.41
2023-08-11T21:30:11.494Z,99271.23
2023-08-11T21:32:41.023Z,99275.33
2023-08-11T21:35:10.832Z,99275.20
2023-08-11T21:37:40.549Z,99274.79
2023-08-11T21:40:11.447Z,99276.93
2023-08-11T21:42:41.613Z,99277.36
2023-08-11T21:45:12.574Z,99281.11
2023-08-11T21:47:42.216Z,99284.52
2023-08-11T21:50:12.244Z,99284.38
2023-08-11T21:52:42.118Z,99283.69
2023-08-11T21:55:11.300Z,99283.25
2023-08-11T21:57:40.733Z,99285.95
2023-08-11T22:00:10.469Z,99289.20
2023-08-11T22:02:39.995Z,99289.46
2023-08-11T22:05:34.238Z,99281.48
2023-08-11T22:08:03.292Z,99290.98
2023-08-11T22:10:32.467Z,99288.55
2023-08-11T22:13:02.429Z,99285.72
2023-08-11T22:15:31.681Z,99291.27
2023-08-11T22:18:01.190Z,99289.85
2023-08-11T22:20:30.935Z,99285.98
2023-08-11T22:23:00.659Z,99293.09
2023-08-11T22:25:29.781Z,99285.84
2023-08-11T22:27:59.297Z,99281.76
2023-08-11T22:30:29.183Z,99287.66
2023-08-11T22:32:58.927Z,99290.59
2023-08-11T22:35:29.434Z,99287.73
2023-08-11T22:37:58.347Z,99274.86
2023-08-11T22:40:27.577Z,99286.03
2023-08-11T22:42:57.728Z,99281.96
2023-08-11T22:45:27.556Z,99281.52
2023-08-11T22:47:56.828Z,99282.84
2023-08-11T22:50:26.823Z,99286.24
2023-08-11T22:52:56.121Z,99287.46
2023-08-11T22:55:25.217Z,99287.26
2023-08-11T22:57:54.961Z,99291.09
2023-08-11T23:00:23.989Z,99289.78
2023-08-11T23:02:53.796Z,99285.02
2023-08-11T23:05:23.537Z,99287.80
2023-08-11T23:07:55.631Z,99283.86
2023-08-11T23:10:24.905Z,99286.63
2023-08-11T23:12:54.477Z,99285.48
2023-08-11T23:15:24.105Z,99288.73
2023-08-11T23:17:54.300Z,99288.33
2023-08-11T23:20:23.673Z,99293.20
2023-08-11T23:22:53.057Z,99290.52
2023-08-11T23:25:22.609Z,99297.14
2023-08-11T23:27:52.695Z,99297.02
2023-08-11T23:30:22.282Z,99299.34
2023-08-11T23:32:51.673Z,99297.02
2023-08-11T23:35:21.555Z,99295.73
2023-08-11T23:37:52.463Z,99296.05
2023-08-11T23:40:24.097Z,99307.73
2023-08-11T23:42:53.642Z,99289.82
2023-08-11T23:45:22.558Z,99296.77
2023-08-11T23:47:52.008Z,99294.99
2023-08-11T23:50:21.356Z,99296.27
2023-08-11T23:52:52.361Z,99296.28
2023-08-11T23:55:24.016Z,99292.35
2023-08-11T23:57:53.487Z,99294.84
